Time;durP1;ratioP1;P1;durP2;ratioP2;P2;SDS_P1;SDS_P2;PMS_P1;PMS_P2;Temp;Humidity;BMP_temperature;BMP_pressure;BME280_temperature;BME280_humidity;BME280_pressure;Samples;Min_cycle;Max_cycle;Signal;HPM_P1;HPM_P2
2021/04/14 00:00:37;;;;;;;;;;;;;;;10.37;67.66;100380.19;1678704;85;20176;-58
2021/04/14 00:03:07;;;;;;;;;;;;;;;10.36;67.61;100381.21;1679117;85;20263;-58
2021/04/14 00:05:37;;;;;;;;;;;;;;;10.38;67.64;100381.80;1676303;84;20311;-58
2021/04/14 00:08:06;;;;;;;;;;;;;;;10.39;67.60;100380.77;1679103;85;20240;-59
2021/04/14 00:10:36;;;;;;;;;;;;;;;10.41;67.46;100379.53;1678444;85;21212;-59
2021/04/14 00:13:05;;;;;;;;;;;;;;;10.44;67.33;100377.75;1679129;85;20661;-58
2021/04/14 00:15:36;;;;;;;;;;;;;;;10.45;67.20;100380.74;1678889;85;20183;-57
2021/04/14 00:18:05;;;;;;;;;;;;;;;10.46;67.06;100378.34;1679067;85;20179;-58
2021/04/14 00:20:35;;;;;;;;;;;;;;;10.46;66.90;100381.55;1675724;85;20508;-57
2021/04/14 00:23:04;;;;;;;;;;;;;;;10.44;66.76;100374.27;1679232;85;21382;-58
2021/04/14 00:25:35;;;;;;;;;;;;;;;10.39;66.74;100378.91;1700999;82;20208;-57
2021/04/14 00:28:05;;;;;;;;;;;;;;;10.35;66.75;100385.76;1738546;82;20495;-58
2021/04/14 00:30:33;;;;;;;;;;;;;;;10.32;66.83;100379.44;1738643;82;20159;-60
2021/04/14 00:33:00;;;;;;;;;;;;;;;10.29;66.91;100378.03;1738400;82;20215;-58
2021/04/14 00:35:47;;;;;;;;;;;;;;;10.30;66.91;100380.18;1738368;82;23555;-57
2021/04/14 00:38:17;;;;;;;;;;;;;;;10.33;66.79;100374.38;1735452;82;20214;-58
2021/04/14 00:40:48;;;;;;;;;;;;;;;10.33;66.58;100375.73;1738485;82;20228;-58
2021/04/14 00:43:24;;;;;;;;;;;;;;;10.33;66.43;100372.58;1738791;82;20226;-57
2021/04/14 00:45:52;;;;;;;;;;;;;;;10.30;66.35;100364.91;1738333;82;20236;-57
2021/04/14 00:48:20;;;;;;;;;;;;;;;10.29;66.37;100363.30;1737793;82;21220;-58
2021/04/14 00:50:50;;;;;;;;;;;;;;;10.27;66.40;100367.22;1738395;81;20497;-57
2021/04/14 00:53:18;;;;;;;;;;;;;;;10.26;66.43;100365.56;1738472;82;20206;-58
2021/04/14 00:55:46;;;;;;;;;;;;;;;10.25;66.45;100365.28;1738459;82;20252;-58
2021/04/14 00:58:15;;;;;;;;;;;;;;;10.24;66.41;100356.41;1738573;82;20227;-58
2021/04/14 01:00:48;;;;;;;;;;;;;;;10.22;66.28;100359.83;1690187;82;21217;-58
2021/04/14 01:03:21;;;;;;;;;;;;;;;10.21;66.14;100352.82;1738408;82;20130;-58
2021/04/14 01:05:52;;;;;;;;;;;;;;;10.17;66.09;100352.45;1735755;82;20143;-57
2021/04/14 01:08:21;;;;;;;;;;;;;;;10.13;66.12;100343.19;1738478;82;20484;-59
2021/04/14 01:10:49;;;;;;;;;;;;;;;10.14;66.12;100348.86;1738488;82;20487;-59
2021/04/14 01:13:16;;;;;;;;;;;;;;;10.14;66.07;100342.16;1738517;82;21197;-58
2021/04/14 01:15:45;;;;;;;;;;;;;;;10.16;65.99;100343.28;1738408;82;20253;-59
2021/04/14 01:18:23;;;;;;;;;;;;;;;10.16;65.89;100344.63;1736432;82;20205;-58
2021/04/14 01:20:52;;;;;;;;;;;;;;;10.16;65.77;100347.30;1712394;82;20515;-59
2021/04/14 01:23:22;;;;;;;;;;;;;;;10.16;65.70;100352.13;1738416;82;20218;-56
2021/04/14 01:25:50;;;;;;;;;;;;;;;10.17;65.61;100358.30;1716889;82;21285;-57
2021/04/14 01:28:21;;;;;;;;;;;;;;;10.15;65.53;100361.73;1741451;82;20202;-59
2021/04/14 01:30:51;;;;;;;;;;;;;;;10.15;65.42;100364.41;1742983;82;20217;-60
2021/04/14 01:33:19;;;;;;;;;;;;;;;10.12;65.39;100358.95;1742936;82;20227;-61
2021/04/14 01:35:49;;;;;;;;;;;;;;;10.08;65.37;100368.45;1714730;82;20146;-58
2021/04/14 01:38:18;;;;;;;;;;;;;;;9.98;65.58;100359.56;1743175;82;20757;-58
2021/04/14 01:40:47;;;;;;;;;;;;;;;9.96;65.90;100358.13;1742357;82;20118;-58
2021/04/14 01:43:15;;;;;;;;;;;;;;;9.94;66.11;100366.90;1742632;82;20231;-58
2021/04/14 01:45:44;;;;;;;;;;;;;;;9.93;66.24;100363.91;1742451;82;20230;-59
2021/04/14 01:48:12;;;;;;;;;;;;;;;9.91;66.37;100353.91;1742445;82;20138;-59
2021/04/14 01:50:40;;;;;;;;;;;;;;;9.90;66.45;100361.13;1742495;81;22131;-58
2021/04/14 01:53:11;;;;;;;;;;;;;;;9.88;66.53;100354.34;1738194;82;20135;-58
2021/04/14 01:55:38;;;;;;;;;;;;;;;9.87;66.63;100354.06;1715630;82;20502;-58
2021/04/14 01:58:08;;;;;;;;;;;;;;;9.84;66.69;100353.96;1738232;82;20184;-58
2021/04/14 02:00:41;;;;;;;;;;;;;;;9.81;66.79;100349.03;1764195;80;20221;-57
2021/04/14 02:03:08;;;;;;;;;;;;;;;9.80;66.87;100344.20;1741419;82;21189;-57
2021/04/14 02:05:37;;;;;;;;;;;;;;;9.80;66.91;100351.40;1738035;82;20221;-58
2021/04/14 02:08:06;;;;;;;;;;;;;;;9.78;66.92;100353.48;1713631;82;20226;-59
2021/04/14 02:10:34;;;;;;;;;;;;;;;9.77;66.96;100360.67;1742317;82;20226;-61
2021/04/14 02:13:04;;;;;;;;;;;;;;;9.74;66.96;100354.41;1741572;82;20238;-57
2021/04/14 02:15:33;;;;;;;;;;;;;;;9.71;66.94;100354.84;1740311;82;21214;-58
2021/04/14 02:18:02;;;;;;;;;;;;;;;9.70;66.94;100351.88;1742466;82;20213;-58
2021/04/14 02:20:31;;;;;;;;;;;;;;;9.68;66.95;100347.77;1743076;82;20285;-58
2021/04/14 02:23:12;;;;;;;;;;;;;;;9.65;66.98;100354.35;1740297;82;20328;-58
2021/04/14 02:25:40;;;;;;;;;;;;;;;9.65;66.95;100347.13;1736078;80;20256;-58
2021/04/14 02:28:08;;;;;;;;;;;;;;;9.67;66.89;100360.30;1741527;81;21459;-58
2021/04/14 02:30:36;;;;;;;;;;;;;;;9.68;66.84;100356.60;1749902;81;20231;-58
2021/04/14 02:33:05;;;;;;;;;;;;;;;9.70;66.76;100353.71;1726059;81;20263;-59
2021/04/14 02:35:34;;;;;;;;;;;;;;;9.68;66.74;100352.59;1752980;81;20714;-58
2021/04/14 02:38:02;;;;;;;;;;;;;;;9.68;66.71;100345.89;1751094;80;20489;-58
2021/04/14 02:40:29;;;;;;;;;;;;;;;9.67;66.70;100350.94;1751582;81;21165;-58
2021/04/14 02:42:57;;;;;;;;;;;;;;;9.65;66.72;100340.97;1752341;81;20212;-57
2021/04/14 02:45:27;;;;;;;;;;;;;;;9.63;66.66;100338.50;1750845;81;20302;-57
2021/04/14 02:47:55;;;;;;;;;;;;;;;9.63;66.59;100335.02;1752199;81;20240;-58
2021/04/14 02:50:23;;;;;;;;;;;;;;;9.63;66.49;100335.02;1751648;81;20728;-57
2021/04/14 02:52:51;;;;;;;;;;;;;;;9.64;66.35;100331.28;1746101;81;21147;-59
2021/04/14 02:55:19;;;;;;;;;;;;;;;9.62;66.26;100332.03;1744584;81;20643;-58
2021/04/14 02:57:47;;;;;;;;;;;;;;;9.61;66.13;100338.41;1741865;81;20139;-59
2021/04/14 03:00:23;;;;;;;;;;;;;;;9.59;66.07;100332.45;1752573;81;20195;-58
2021/04/14 03:02:51;;;;;;;;;;;;;;;9.56;66.03;100326.19;1751413;81;20242;-57
2021/04/14 03:05:23;;;;;;;;;;;;;;;9.55;65.81;100322.67;1745464;81;21193;-58
2021/04/14 03:07:51;;;;;;;;;;;;;;;9.55;65.68;100319.19;1744645;81;20632;-57
2021/04/14 03:10:19;;;;;;;;;;;;;;;9.54;65.53;100326.41;1744359;81;20155;-57
2021/04/14 03:12:47;;;;;;;;;;;;;;;9.55;65.37;100325.88;1750533;81;20225;-57
2021/04/14 03:15:15;;;;;;;;;;;;;;;9.54;65.19;100333.09;1750369;81;20232;-58
2021/04/14 03:17:43;;;;;;;;;;;;;;;9.52;65.25;100331.13;1748866;81;21203;-59
2021/04/14 03:20:12;;;;;;;;;;;;;;;9.51;65.17;100334.02;1754369;81;20220;-58
2021/04/14 03:22:39;;;;;;;;;;;;;;;9.49;65.11;100326.20;1779748;80;20479;-58
2021/04/14 03:25:08;;;;;;;;;;;;;;;9.49;65.07;100330.22;1753721;80;20227;-59
2021/04/14 03:27:36;;;;;;;;;;;;;;;9.46;65.02;100328.78;1741697;81;20227;-59
2021/04/14 03:30:05;;;;;;;;;;;;;;;9.45;65.04;100329.83;1740411;82;21203;-58
2021/04/14 03:32:33;;;;;;;;;;;;;;;9.44;65.08;100328.18;1742458;82;20262;-57
2021/04/14 03:35:03;;;;;;;;;;;;;;;9.45;65.11;100331.67;1736611;82;20246;-58
2021/04/14 03:37:31;;;;;;;;;;;;;;;9.44;65.08;100334.88;1739725;82;20233;-58
2021/04/14 03:39:59;;;;;;;;;;;;;;;9.42;65.02;100334.27;1711821;82;20253;-59
2021/04/14 03:42:26;;;;;;;;;;;;;;;9.42;64.85;100329.42;1739535;82;21149;-58
2021/04/14 03:44:56;;;;;;;;;;;;;;;9.41;64.89;100329.13;1743310;82;20252;-60
2021/04/14 03:47:24;;;;;;;;;;;;;;;9.39;64.72;100327.17;1739274;81;20200;-60
2021/04/14 03:49:52;;;;;;;;;;;;;;;9.37;64.73;100330.58;1742401;82;20323;-59
2021/04/14 03:52:20;;;;;;;;;;;;;;;9.39;64.77;100329.84;1744257;82;20281;-59
2021/04/14 03:54:48;;;;;;;;;;;;;;;9.41;64.57;100329.95;1740335;82;21206;-59
2021/04/14 03:57:34;;;;;;;;;;;;;;;9.42;64.42;100328.92;1735197;82;20204;-58
2021/04/14 04:00:04;;;;;;;;;;;;;;;9.43;64.47;100340.44;1744339;82;20281;-58
2021/04/14 04:02:34;;;;;;;;;;;;;;;9.42;64.48;100332.94;1743488;80;20277;-56
2021/04/14 04:05:03;;;;;;;;;;;;;;;9.44;64.50;100332.72;1738595;82;20230;-58
2021/04/14 04:07:31;;;;;;;;;;;;;;;9.46;64.43;100333.32;1742436;82;21211;-58
2021/04/14 04:09:58;;;;;;;;;;;;;;;9.49;64.48;100326.73;1742918;82;20225;-58
2021/04/14 04:12:26;;;;;;;;;;;;;;;9.54;64.50;100333.09;1743600;82;20154;-57
2021/04/14 04:14:55;;;;;;;;;;;;;;;9.60;64.40;100334.91;1743025;82;20270;-58
2021/04/14 04:17:23;;;;;;;;;;;;;;;9.68;64.38;100334.38;1742446;82;20292;-59
2021/04/14 04:19:52;;;;;;;;;;;;;;;9.76;64.26;100320.73;1740876;82;21146;-58
2021/04/14 04:22:20;;;;;;;;;;;;;;;9.89;64.05;100321.99;1734952;82;20229;-59
2021/04/14 04:24:49;;;;;;;;;;;;;;;10.04;63.59;100327.58;1710502;80;20566;-58
2021/04/14 04:27:17;;;;;;;;;;;;;;;10.15;63.12;100333.59;1738391;81;20292;-60
2021/04/14 04:29:45;;;;;;;;;;;;;;;10.21;62.77;100332.73;1741209;82;20245;-59
2021/04/14 04:32:12;;;;;;;;;;;;;;;10.28;62.66;100342.89;1745007;82;21375;-59
2021/04/14 04:34:40;;;;;;;;;;;;;;;10.36;62.50;100345.84;1742235;82;20213;-57
2021/04/14 04:37:09;;;;;;;;;;;;;;;10.46;62.06;100347.52;1744121;82;20115;-59
2021/04/14 04:39:37;;;;;;;;;;;;;;;10.57;61.68;100351.88;1740301;82;20214;-58
2021/04/14 04:42:05;;;;;;;;;;;;;;;10.63;61.08;100353.18;1742189;82;20241;-59
2021/04/14 04:44:33;;;;;;;;;;;;;;;10.63;60.91;100355.86;1739782;82;21381;-60
2021/04/14 04:47:01;;;;;;;;;;;;;;;10.64;60.77;100357.48;1741378;82;20221;-58
2021/04/14 04:49:30;;;;;;;;;;;;;;;10.71;60.68;100359.31;1743802;82;20135;-60
2021/04/14 04:51:57;;;;;;;;;;;;;;;10.78;60.21;100356.06;1655257;86;20340;-60
2021/04/14 04:54:25;;;;;;;;;;;;;;;10.82;59.59;100362.09;1655910;86;20264;-59
2021/04/14 04:56:53;;;;;;;;;;;;;;;10.81;59.72;100365.81;1628454;87;22157;-58
2021/04/14 04:59:21;;;;;;;;;;;;;;;10.86;60.11;100361.12;1631958;87;20268;-57
2021/04/14 05:01:49;;;;;;;;;;;;;;;10.93;60.30;100357.86;1599465;89;20264;-59
2021/04/14 05:04:18;;;;;;;;;;;;;;;11.00;60.49;100357.28;1635621;86;20319;-59
2021/04/14 05:06:46;;;;;;;;;;;;;;;11.07;60.36;100355.89;1656996;86;20249;-60
2021/04/14 05:09:14;;;;;;;;;;;;;;;11.08;60.11;100357.52;1676755;81;21162;-58
2021/04/14 05:11:42;;;;;;;;;;;;;;;11.07;60.03;100358.58;1747987;81;20143;-59
2021/04/14 05:14:10;;;;;;;;;;;;;;;11.09;60.09;100358.35;1745589;81;20178;-58
2021/04/14 05:16:38;;;;;;;;;;;;;;;11.09;59.95;100355.67;1722995;81;20280;-60
2021/04/14 05:19:07;;;;;;;;;;;;;;;11.05;59.76;100361.98;1749447;81;20280;-58
2021/04/14 05:21:38;;;;;;;;;;;;;;;10.99;59.84;100361.53;1774338;80;21201;-59
2021/04/14 05:24:08;;;;;;;;;;;;;;;10.93;59.77;100364.56;1750572;81;20935;-58
2021/04/14 05:26:36;;;;;;;;;;;;;;;10.82;59.95;100355.89;1739502;81;20143;-60
2021/04/14 05:29:04;;;;;;;;;;;;;;;10.77;60.24;100355.75;1747094;81;20196;-61
2021/04/14 05:31:33;;;;;;;;;;;;;;;10.78;60.41;100358.20;1748182;81;20285;-59
2021/04/14 05:34:01;;;;;;;;;;;;;;;10.84;60.25;100357.85;1717932;82;21214;-59
2021/04/14 05:36:29;;;;;;;;;;;;;;;10.87;59.98;100357.41;1718773;82;20226;-59
2021/04/14 05:38:57;;;;;;;;;;;;;;;10.86;60.15;100360.62;1745863;81;20137;-59
2021/04/14 05:41:25;;;;;;;;;;;;;;;10.90;59.96;100350.80;1746535;81;20159;-58
2021/04/14 05:43:53;;;;;;;;;;;;;;;10.92;60.00;100346.83;1745713;81;20162;-58
2021/04/14 05:46:21;;;;;;;;;;;;;;;10.99;59.97;100344.09;1741596;81;21169;-59
2021/04/14 05:48:49;;;;;;;;;;;;;;;11.16;59.96;100350.53;1746253;81;20138;-60
2021/04/14 05:51:20;;;;;;;;;;;;;;;11.36;58.96;100346.27;1738917;81;20149;-58
2021/04/14 05:53:48;;;;;;;;;;;;;;;11.54;58.73;100342.78;1742400;81;20272;-58
2021/04/14 05:56:17;;;;;;;;;;;;;;;11.73;57.02;100336.87;1748687;81;20502;-58
2021/04/14 05:58:45;;;;;;;;;;;;;;;11.79;56.23;100343.17;1767105;80;21212;-59
2021/04/14 06:01:14;;;;;;;;;;;;;;;11.71;55.78;100338.94;1747514;81;20267;-57
2021/04/14 06:03:42;;;;;;;;;;;;;;;11.66;55.91;100345.53;1745562;81;20485;-58
2021/04/14 06:06:10;;;;;;;;;;;;;;;11.68;55.30;100342.08;1745770;81;20153;-57
2021/04/14 06:08:38;;;;;;;;;;;;;;;11.83;55.19;100343.02;1747179;81;20246;-58
2021/04/14 06:11:07;;;;;;;;;;;;;;;11.97;54.11;100339.68;1671195;81;21221;-57
2021/04/14 06:13:36;;;;;;;;;;;;;;;12.05;53.09;100336.66;1744882;81;20298;-59
2021/04/14 06:16:07;;;;;;;;;;;;;;;12.08;53.21;100336.20;1743425;81;20270;-60
2021/04/14 06:18:36;;;;;;;;;;;;;;;12.16;53.26;100335.08;1746344;81;20245;-59
2021/04/14 06:21:05;;;;;;;;;;;;;;;12.23;53.24;100333.11;1747850;81;20250;-60
2021/04/14 06:23:33;;;;;;;;;;;;;;;12.35;52.36;100334.98;1742234;81;21203;-60
2021/04/14 06:28:36;;;;;;;;;;;;;;;12.53;51.83;100341.64;1744268;81;20221;-60
2021/04/14 06:31:05;;;;;;;;;;;;;;;12.68;51.78;100335.80;1743873;81;20902;-60
2021/04/14 06:33:36;;;;;;;;;;;;;;;12.81;51.81;100337.45;1743852;82;20226;-60
2021/04/14 06:36:06;;;;;;;;;;;;;;;12.89;51.24;100338.44;1719438;82;21209;-59
2021/04/14 06:38:41;;;;;;;;;;;;;;;12.99;50.66;100331.13;1743908;82;20261;-59
2021/04/14 06:41:20;;;;;;;;;;;;;;;13.10;50.56;100334.35;1743412;82;20222;-61
2021/04/14 06:43:47;;;;;;;;;;;;;;;13.23;50.55;100327.88;1742029;82;20242;-59
2021/04/14 06:46:27;;;;;;;;;;;;;;;13.40;50.27;100333.93;1742610;81;20244;-60
2021/04/14 06:49:01;;;;;;;;;;;;;;;13.55;50.12;100331.53;1743892;82;21207;-61
2021/04/14 06:51:42;;;;;;;;;;;;;;;13.74;48.86;100329.48;1743736;82;20205;-59
2021/04/14 06:54:14;;;;;;;;;;;;;;;13.87;47.39;100328.39;1741237;82;20238;-60
2021/04/14 06:56:41;;;;;;;;;;;;;;;13.98;47.29;100324.80;1743841;81;20252;-61
2021/04/14 06:59:17;;;;;;;;;;;;;;;13.95;47.35;100330.67;1739467;82;20253;-59
2021/04/14 07:02:03;;;;;;;;;;;;;;;13.94;46.11;100333.61;1721838;82;22096;-59
2021/04/14 07:04:44;;;;;;;;;;;;;;;13.80;45.96;100329.06;1742896;82;20273;-59
2021/04/14 07:07:21;;;;;;;;;;;;;;;13.73;46.80;100325.69;1742774;82;20246;-59
2021/04/14 07:09:51;;;;;;;;;;;;;;;13.77;46.23;100326.30;1742929;81;20269;-60
2021/04/14 07:12:22;;;;;;;;;;;;;;;13.71;46.04;100318.38;1742965;82;20287;-59
2021/04/14 07:14:52;;;;;;;;;;;;;;;13.56;46.17;100333.69;1738456;82;21463;-60
2021/04/14 07:17:40;;;;;;;;;;;;;;;13.38;46.94;100330.09;1743901;82;20225;-59
2021/04/14 07:20:23;;;;;;;;;;;;;;;13.29;46.88;100326.95;1740813;82;20258;-59
2021/04/14 07:23:00;;;;;;;;;;;;;;;13.24;47.80;100331.41;1740835;82;20139;-60
2021/04/14 07:25:30;;;;;;;;;;;;;;;13.26;47.66;100320.67;1743891;81;20220;-60
2021/04/14 07:28:25;;;;;;;;;;;;;;;13.27;47.60;100323.66;1742684;81;20580;-60
2021/04/14 07:31:11;;;;;;;;;;;;;;;13.24;47.84;100318.75;1742130;81;20155;-61
2021/04/14 07:33:46;;;;;;;;;;;;;;;13.24;47.83;100314.72;1743721;81;20240;-59
2021/04/14 07:36:20;;;;;;;;;;;;;;;13.28;48.16;100316.39;1750218;81;20242;-60
2021/04/14 07:39:11;;;;;;;;;;;;;;;13.39;47.73;100316.13;1746803;81;20222;-60
2021/04/14 07:41:56;;;;;;;;;;;;;;;13.50;47.25;100308.55;1746911;81;21160;-59
2021/04/14 07:44:33;;;;;;;;;;;;;;;13.54;46.74;100308.88;1739795;81;20372;-59
2021/04/14 07:47:01;;;;;;;;;;;;;;;13.48;47.31;100302.57;1746842;81;20238;-59
2021/04/14 07:49:31;;;;;;;;;;;;;;;13.55;47.74;100302.45;1713035;82;20246;-59
2021/04/14 07:52:00;;;;;;;;;;;;;;;13.63;47.53;100302.89;1715740;81;20520;-59
2021/04/14 07:54:42;;;;;;;;;;;;;;;13.70;47.19;100299.23;1749376;81;21218;-59
2021/04/14 07:57:10;;;;;;;;;;;;;;;13.76;47.19;100294.22;1745807;81;20135;-59
2021/04/14 07:59:40;;;;;;;;;;;;;;;13.82;47.17;100291.91;1730813;81;20135;-60
2021/04/14 08:02:15;;;;;;;;;;;;;;;13.88;47.25;100291.47;1750672;81;20113;-61
2021/04/14 08:04:47;;;;;;;;;;;;;;;13.98;47.29;100282.22;1748956;81;20235;-61
2021/04/14 08:07:18;;;;;;;;;;;;;;;14.16;46.63;100282.52;1756309;81;21264;-61
2021/04/14 08:09:55;;;;;;;;;;;;;;;14.32;45.67;100279.02;1746028;81;20223;-60
2021/04/14 08:12:40;;;;;;;;;;;;;;;14.50;44.76;100283.36;1750549;81;20188;-60
2021/04/14 08:15:17;;;;;;;;;;;;;;;14.61;43.03;100273.56;1751574;81;20228;-58
2021/04/14 08:17:45;;;;;;;;;;;;;;;14.64;41.65;100273.06;1628442;86;20274;-59
2021/04/14 08:20:28;;;;;;;;;;;;;;;14.64;41.54;100269.56;1639814;86;21303;-61
2021/04/14 08:23:23;;;;;;;;;;;;;;;14.64;42.54;100268.22;1642763;86;20258;-62
2021/04/14 08:25:55;;;;;;;;;;;;;;;14.72;42.57;100266.42;1638302;85;20253;-60
2021/04/14 08:28:41;;;;;;;;;;;;;;;14.95;43.44;100255.95;1821483;77;20294;-61
2021/04/14 08:31:08;;;;;;;;;;;;;;;15.05;41.51;100254.73;1815034;79;20303;-60
2021/04/14 08:33:37;;;;;;;;;;;;;;;15.10;41.35;100249.93;1805954;79;21239;-61
2021/04/14 08:36:22;;;;;;;;;;;;;;;15.04;40.99;100244.20;1818979;79;20137;-59
2021/04/14 08:38:52;;;;;;;;;;;;;;;14.91;41.53;100247.27;1818084;79;20187;-59
2021/04/14 08:41:22;;;;;;;;;;;;;;;14.88;41.49;100240.47;1818828;78;20655;-59
2021/04/14 08:43:53;;;;;;;;;;;;;;;14.92;41.38;100234.06;1816317;79;20144;-60
2021/04/14 08:46:34;;;;;;;;;;;;;;;14.98;42.00;100234.41;1818937;79;21393;-60
2021/04/14 08:49:12;;;;;;;;;;;;;;;15.05;42.75;100218.30;1817533;79;20133;-60
2021/04/14 08:51:45;;;;;;;;;;;;;;;15.16;41.87;100217.06;1817809;79;20268;-60
2021/04/14 08:54:18;;;;;;;;;;;;;;;15.13;41.64;100223.78;1816600;79;20199;-61
2021/04/14 08:56:46;;;;;;;;;;;;;;;15.00;41.82;100222.30;1816883;79;20224;-59
2021/04/14 08:59:15;;;;;;;;;;;;;;;14.89;41.98;100215.12;1782031;79;21299;-59
2021/04/14 09:01:42;;;;;;;;;;;;;;;14.78;42.73;100207.44;1818599;79;20176;-63
2021/04/14 09:04:11;;;;;;;;;;;;;;;14.73;42.89;100204.66;1814860;79;20109;-60
2021/04/14 09:06:40;;;;;;;;;;;;;;;14.73;43.07;100206.02;1816063;79;20228;-61
2021/04/14 09:09:11;;;;;;;;;;;;;;;14.78;44.13;100209.30;1818884;78;20141;-60
2021/04/14 09:11:39;;;;;;;;;;;;;;;14.88;42.90;100206.74;1817817;79;22141;-59
2021/04/14 09:14:26;;;;;;;;;;;;;;;14.97;42.56;100194.97;1818576;79;20470;-60
2021/04/14 09:17:06;;;;;;;;;;;;;;;15.02;42.59;100184.25;1817536;79;20496;-60
2021/04/14 09:19:37;;;;;;;;;;;;;;;15.05;43.60;100192.66;1817524;79;20230;-59
2021/04/14 09:22:21;;;;;;;;;;;;;;;15.14;42.88;100188.17;1817805;79;20180;-60
2021/04/14 09:24:55;;;;;;;;;;;;;;;15.20;42.80;100190.66;1819055;79;22304;-61
2021/04/14 09:27:35;;;;;;;;;;;;;;;15.23;41.46;100186.64;1806482;79;20177;-60
2021/04/14 09:30:13;;;;;;;;;;;;;;;15.16;41.18;100186.83;1757480;79;20189;-60
2021/04/14 09:33:06;;;;;;;;;;;;;;;15.08;41.35;100183.24;1783872;79;20223;-59
2021/04/14 09:35:39;;;;;;;;;;;;;;;15.04;42.01;100187.51;1785952;79;20290;-60
2021/04/14 09:38:21;;;;;;;;;;;;;;;15.03;40.51;100179.95;1789923;79;20847;-60
2021/04/14 09:40:45;;;;;;;;;;;;;;;14.94;40.66;100189.54;1786715;79;20230;-60
2021/04/14 09:43:28;;;;;;;;;;;;;;;14.85;41.21;100180.26;1789961;79;20163;-60
2021/04/14 09:45:59;;;;;;;;;;;;;;;14.81;41.01;100178.61;1788015;79;20511;-59
2021/04/14 09:48:42;;;;;;;;;;;;;;;14.78;41.39;100175.58;1789306;79;20496;-60
2021/04/14 09:51:23;;;;;;;;;;;;;;;14.79;41.92;100175.87;1785302;79;21259;-59
2021/04/14 09:53:54;;;;;;;;;;;;;;;14.83;40.79;100175.11;1788434;79;20237;-60
2021/04/14 09:56:22;;;;;;;;;;;;;;;14.82;41.00;100172.67;1790249;79;20154;-59
2021/04/14 09:58:54;;;;;;;;;;;;;;;14.80;41.52;100171.57;1790715;79;20270;-60
2021/04/14 10:01:28;;;;;;;;;;;;;;;14.83;41.81;100174.31;1719773;83;20221;-62
2021/04/14 10:03:58;;;;;;;;;;;;;;;14.85;41.97;100172.97;1735390;82;21206;-61
2021/04/14 10:06:26;;;;;;;;;;;;;;;14.87;44.14;100165.45;1727131;82;20176;-60
2021/04/14 10:08:59;;;;;;;;;;;;;;;14.83;45.10;100174.31;1732717;82;20164;-60
2021/04/14 10:11:37;;;;;;;;;;;;;;;14.75;45.83;100181.48;1727388;82;20130;-60
2021/04/14 10:14:17;;;;;;;;;;;;;;;14.57;46.28;100183.37;1728562;82;20309;-59
2021/04/14 10:16:46;;;;;;;;;;;;;;;14.36;46.97;100169.60;1629262;87;21247;-59
2021/04/14 10:19:26;;;;;;;;;;;;;;;14.28;47.44;100169.20;1629101;87;20231;-61
2021/04/14 10:22:12;;;;;;;;;;;;;;;14.19;47.90;100173.69;1839299;77;20667;-61
2021/04/14 10:24:44;;;;;;;;;;;;;;;14.07;47.76;100164.86;1797332;78;20109;-60
2021/04/14 10:27:22;;;;;;;;;;;;;;;13.96;48.24;100162.55;1762041;80;22201;-60
2021/04/14 10:29:50;;;;;;;;;;;;;;;13.87;48.72;100169.41;1752536;80;20217;-60
2021/04/14 10:32:23;;;;;;;;;;;;;;;13.79;49.13;100172.50;1763892;80;20158;-60
2021/04/14 10:34:51;;;;;;;;;;;;;;;13.69;49.69;100170.98;1761005;80;20195;-60
2021/04/14 10:37:24;;;;;;;;;;;;;;;13.64;50.44;100171.72;1764474;80;20584;-59
2021/04/14 10:39:52;;;;;;;;;;;;;;;13.42;50.99;100166.21;1764495;80;22452;-59
2021/04/14 10:42:22;;;;;;;;;;;;;;;13.20;51.69;100153.94;1764882;80;20217;-60
2021/04/14 10:44:55;;;;;;;;;;;;;;;13.08;52.18;100170.13;1763748;80;20265;-61
2021/04/14 10:47:28;;;;;;;;;;;;;;;13.06;52.46;100168.19;1766550;80;20512;-59
2021/04/14 10:50:09;;;;;;;;;;;;;;;13.08;52.71;100156.67;1762345;80;20492;-60
2021/04/14 10:52:37;;;;;;;;;;;;;;;13.13;52.59;100154.90;1765969;80;21198;-59
2021/04/14 10:55:12;;;;;;;;;;;;;;;13.15;52.41;100161.39;1765453;80;20528;-60
2021/04/14 10:57:46;;;;;;;;;;;;;;;13.14;52.61;100148.98;1759916;80;20189;-59
2021/04/14 11:00:21;;;;;;;;;;;;;;;13.13;52.67;100149.52;1765638;80;20294;-61
2021/04/14 11:02:50;;;;;;;;;;;;;;;13.10;52.62;100139.23;1763238;80;20223;-60
2021/04/14 11:05:19;;;;;;;;;;;;;;;13.07;52.60;100145.61;1759844;80;21375;-61
2021/04/14 11:07:49;;;;;;;;;;;;;;;13.07;52.46;100150.99;1763257;80;20221;-61
2021/04/14 11:10:28;;;;;;;;;;;;;;;13.08;52.48;100147.25;1761237;80;20249;-60
2021/04/14 11:12:57;;;;;;;;;;;;;;;13.13;52.26;100144.14;1764214;80;20159;-60
2021/04/14 11:15:28;;;;;;;;;;;;;;;13.14;52.31;100140.37;1759674;80;20268;-59
2021/04/14 11:17:59;;;;;;;;;;;;;;;13.18;52.12;100135.34;1762431;80;21387;-59
2021/04/14 11:20:49;;;;;;;;;;;;;;;13.22;51.92;100130.27;1767215;80;20258;-60
2021/04/14 11:23:19;;;;;;;;;;;;;;;13.25;51.91;100129.28;1777791;80;20517;-61
2021/04/14 11:26:07;;;;;;;;;;;;;;;13.30;51.35;100132.59;1781307;80;20297;-60
2021/04/14 11:28:40;;;;;;;;;;;;;;;13.28;51.55;100125.27;1776974;80;20411;-59
2021/04/14 11:31:10;;;;;;;;;;;;;;;13.29;51.90;100122.87;1777928;80;21205;-60
2021/04/14 11:33:40;;;;;;;;;;;;;;;13.29;52.27;100123.70;1746561;80;20194;-59
2021/04/14 11:36:21;;;;;;;;;;;;;;;13.28;52.19;100117.19;1771516;80;20241;-61
2021/04/14 11:39:11;;;;;;;;;;;;;;;13.21;52.37;100121.93;1775656;80;20317;-59
2021/04/14 11:41:41;;;;;;;;;;;;;;;13.13;52.26;100120.42;1776196;80;20278;-60
2021/04/14 11:44:21;;;;;;;;;;;;;;;13.11;52.20;100116.62;1775862;80;20670;-60
2021/04/14 11:46:55;;;;;;;;;;;;;;;13.13;52.28;100113.19;1780395;80;20230;-59
2021/04/14 11:49:29;;;;;;;;;;;;;;;13.15;52.32;100113.75;1777498;80;20146;-59
2021/04/14 11:51:58;;;;;;;;;;;;;;;13.15;52.42;100100.83;1779538;80;20217;-59
2021/04/14 11:54:30;;;;;;;;;;;;;;;13.17;52.53;100122.12;1779664;80;20287;-59
2021/04/14 11:57:08;;;;;;;;;;;;;;;13.15;52.47;100107.56;1781753;80;21190;-60
2021/04/14 11:59:40;;;;;;;;;;;;;;;13.12;52.48;100106.16;1775137;80;20153;-60
2021/04/14 12:02:20;;;;;;;;;;;;;;;13.09;52.24;100098.57;1778854;80;20226;-60
2021/04/14 12:04:56;;;;;;;;;;;;;;;13.10;52.25;100102.91;1779494;80;20242;-60
2021/04/14 12:07:24;;;;;;;;;;;;;;;13.15;52.01;100098.95;1779597;80;20346;-60
2021/04/14 12:09:52;;;;;;;;;;;;;;;13.19;52.20;100095.77;1783037;80;22697;-59
2021/04/14 12:12:20;;;;;;;;;;;;;;;13.18;52.43;100098.20;1777085;80;20229;-60
2021/04/14 12:14:50;;;;;;;;;;;;;;;13.14;52.73;100096.50;1776414;80;20212;-62
2021/04/14 12:17:18;;;;;;;;;;;;;;;13.13;52.88;100087.62;1778031;80;20240;-61
2021/04/14 12:19:46;;;;;;;;;;;;;;;13.14;52.80;100100.53;1780450;80;20524;-59
2021/04/14 12:22:15;;;;;;;;;;;;;;;13.12;52.63;100111.55;1774007;80;21214;-62
2021/04/14 12:24:43;;;;;;;;;;;;;;;13.10;52.46;100104.76;1772975;80;20285;-60
2021/04/14 12:30:44;;;;;;;;;;;;;;;13.09;52.31;100099.92;1775711;80;20924;-60
2021/04/14 12:36:44;;;;;;;;;;;;;;;13.08;52.22;100082.67;1777272;80;20206;-59
2021/04/14 12:42:44;;;;;;;;;;;;;;;13.18;52.15;100091.47;1778171;80;20137;-60
2021/04/14 12:48:45;;;;;;;;;;;;;;;13.18;52.26;100087.42;1774108;80;20201;-59
2021/04/14 12:54:46;;;;;;;;;;;;;;;13.18;52.76;100086.08;1781287;80;20504;-60
2021/04/14 13:00:45;;;;;;;;;;;;;;;13.12;52.82;100085.17;1778287;80;20190;-60
2021/04/14 13:06:41;;;;;;;;;;;;;;;13.12;53.03;100077.09;1775071;80;20519;-59
2021/04/14 13:12:42;;;;;;;;;;;;;;;13.24;52.89;100079.19;1779249;80;20162;-60
2021/04/14 13:18:43;;;;;;;;;;;;;;;13.33;52.69;100086.34;1774559;80;20315;-59
2021/04/14 13:21:30;;;;;;;;;;;;;;;13.33;51.97;100080.41;1771389;80;20246;-59
2021/04/14 13:24:11;;;;;;;;;;;;;;;13.33;51.75;100081.75;1767242;80;20295;-59
2021/04/14 13:26:42;;;;;;;;;;;;;;;13.33;51.51;100084.45;1767754;80;20193;-59
2021/04/14 13:29:15;;;;;;;;;;;;;;;13.33;51.04;100090.38;1770680;80;20245;-60
2021/04/14 13:31:48;;;;;;;;;;;;;;;13.29;51.04;100077.94;1749433;81;20253;-60
2021/04/14 13:34:19;;;;;;;;;;;;;;;13.26;50.96;100088.36;1753612;81;22235;-59